createdAt,value
2019-02-28T00:02:27.503Z,10.60
2019-02-28T00:04:56.555Z,13.10
2019-02-28T00:07:25.319Z,13.50
2019-02-28T00:09:57.378Z,12.10
2019-02-28T00:12:25.272Z,10.97
2019-02-28T00:14:54.150Z,11.87
2019-02-28T00:17:22.916Z,11.03
2019-02-28T00:19:51.727Z,14.30
2019-02-28T00:22:20.492Z,13.17
2019-02-28T00:24:49.633Z,13.30
2019-02-28T00:27:22.002Z,11.27
2019-02-28T00:29:49.236Z,10.20
2019-02-28T00:32:18.096Z,14.10
2019-02-28T00:34:46.885Z,14.97
2019-02-28T00:37:16.011Z,13.97
2019-02-28T00:39:44.799Z,12.93
2019-02-28T00:42:17.392Z,11.47
2019-02-28T00:44:44.498Z,13.93
2019-02-28T00:47:16.495Z,11.40
2019-02-28T00:49:44.032Z,12.73
2019-02-28T00:52:13.145Z,12.23
2019-02-28T00:54:44.190Z,12.97
2019-02-28T00:57:12.444Z,11.67
2019-02-28T00:59:41.227Z,12.77
2019-02-28T01:02:10.280Z,13.30
2019-02-28T01:04:39.050Z,15.40
2019-02-28T01:07:07.897Z,14.47
2019-02-28T01:09:36.798Z,12.10
2019-02-28T01:12:06.157Z,14.97
2019-02-28T01:14:35.917Z,18.73
2019-02-28T01:17:05.529Z,13.47
2019-02-28T01:19:34.299Z,19.03
2019-02-28T01:22:03.094Z,16.37
2019-02-28T01:24:34.797Z,14.33
2019-02-28T01:27:02.669Z,20.70
2019-02-28T01:29:32.955Z,13.93
2019-02-28T01:32:02.221Z,11.93
2019-02-28T01:34:32.186Z,13.13
2019-02-28T01:37:01.883Z,12.70
2019-02-28T01:39:30.995Z,14.87
2019-02-28T01:41:59.796Z,11.70
2019-02-28T01:44:28.688Z,12.33
2019-02-28T01:46:57.582Z,10.80
2019-02-28T01:49:26.963Z,12.63
2019-02-28T01:51:55.872Z,14.53
2019-02-28T01:54:27.767Z,11.33
2019-02-28T01:56:55.769Z,14.70
2019-02-28T01:59:24.545Z,14.00
2019-02-28T02:01:53.353Z,14.27
2019-02-28T02:04:22.137Z,14.60
2019-02-28T02:06:51.640Z,14.57
2019-02-28T02:09:20.486Z,12.97
2019-02-28T02:11:49.526Z,15.93
2019-02-28T02:14:18.295Z,11.90
2019-02-28T02:16:47.340Z,15.33
2019-02-28T02:19:18.572Z,14.00
2019-02-28T02:21:46.636Z,12.83
2019-02-28T02:24:15.653Z,10.17
2019-02-28T02:26:45.174Z,11.83
2019-02-28T02:29:14.668Z,9.93
2019-02-28T02:31:43.775Z,11.50
2019-02-28T02:34:12.975Z,12.37
2019-02-28T02:36:41.850Z,13.30
2019-02-28T02:39:16.318Z,15.90
2019-02-28T02:41:41.342Z,12.33
2019-02-28T02:44:10.114Z,15.63
2019-02-28T02:46:38.953Z,10.43
2019-02-28T02:49:08.036Z,12.60
2019-02-28T02:51:36.870Z,13.10
2019-02-28T02:54:05.722Z,11.23
2019-02-28T02:56:40.735Z,10.27
2019-02-28T02:59:05.360Z,12.20
2019-02-28T03:01:34.162Z,11.10
2019-02-28T03:04:03.244Z,14.97
2019-02-28T03:06:32.162Z,9.43
2019-02-28T03:09:01.445Z,10.73
2019-02-28T03:11:30.477Z,14.60
2019-02-28T03:13:59.504Z,13.57
2019-02-28T03:16:28.289Z,14.77
2019-02-28T03:18:58.406Z,12.47
2019-02-28T03:21:27.238Z,12.53
2019-02-28T03:23:56.052Z,11.10
2019-02-28T03:26:25.182Z,9.77
2019-02-28T03:28:54.040Z,10.37
2019-02-28T03:31:22.837Z,11.83
2019-02-28T03:33:51.954Z,14.50
2019-02-28T03:36:21.357Z,12.40
2019-02-28T03:38:50.448Z,13.13
2019-02-28T03:41:19.399Z,13.20
2019-02-28T03:43:48.520Z,15.77
2019-02-28T03:46:17.314Z,12.17
2019-02-28T03:48:46.154Z,13.83
2019-02-28T03:51:15.308Z,15.00
2019-02-28T03:53:44.089Z,16.63
2019-02-28T03:56:14.235Z,14.63
2019-02-28T03:58:43.601Z,14.70
2019-02-28T04:01:12.472Z,15.70
2019-02-28T04:03:41.236Z,10.67
2019-02-28T04:06:10.117Z,11.33
2019-02-28T04:08:39.266Z,13.87
2019-02-28T04:11:08.186Z,14.03
2019-02-28T04:13:37.316Z,11.03
2019-02-28T04:16:09.097Z,12.30
2019-02-28T04:18:44.372Z,12.80
2019-02-28T04:21:10.227Z,18.73
2019-02-28T04:23:38.529Z,15.07
2019-02-28T04:26:07.411Z,17.83
2019-02-28T04:28:36.257Z,14.90
2019-02-28T04:31:05.343Z,13.40
2019-02-28T04:33:37.532Z,14.80
2019-02-28T04:36:05.049Z,14.80
2019-02-28T04:38:33.809Z,12.63
2019-02-28T04:41:02.608Z,15.87
2019-02-28T04:43:31.389Z,15.83
2019-02-28T04:46:00.651Z,14.57
2019-02-28T04:48:29.449Z,17.43
2019-02-28T04:50:58.220Z,11.43
2019-02-28T04:53:27.089Z,14.43
2019-02-28T04:55:55.872Z,13.30
2019-02-28T04:58:25.909Z,15.37
2019-02-28T05:00:54.757Z,16.87
2019-02-28T05:03:29.046Z,15.40
2019-02-28T05:05:56.916Z,22.57
2019-02-28T05:08:26.160Z,18.80
2019-02-28T05:10:55.973Z,17.17
2019-02-28T05:13:25.548Z,16.07
2019-02-28T05:15:55.063Z,19.67
2019-02-28T05:18:23.860Z,20.73
2019-02-28T05:20:52.897Z,18.43
2019-02-28T05:23:21.688Z,20.00
2019-02-28T05:25:52.082Z,17.13
2019-02-28T05:28:21.828Z,19.43
2019-02-28T05:30:53.699Z,20.37
2019-02-28T05:33:22.940Z,16.60
2019-02-28T05:35:51.975Z,15.23
2019-02-28T05:38:22.404Z,14.50
2019-02-28T05:40:51.361Z,14.43
2019-02-28T05:43:20.434Z,16.03
2019-02-28T05:45:49.813Z,15.13
2019-02-28T05:48:18.705Z,14.60
2019-02-28T05:50:52.859Z,16.13
2019-02-28T05:53:19.015Z,15.83
2019-02-28T05:55:47.811Z,20.90
2019-02-28T05:58:18.406Z,15.33
2019-02-28T06:00:47.192Z,15.23
2019-02-28T06:03:15.992Z,14.00
2019-02-28T06:05:46.348Z,19.27
2019-02-28T06:08:15.622Z,19.80
2019-02-28T06:10:44.668Z,20.77
2019-02-28T06:13:15.324Z,21.37
2019-02-28T06:15:44.240Z,17.10
2019-02-28T06:18:13.088Z,19.80
2019-02-28T06:20:42.221Z,19.83
2019-02-28T06:23:11.119Z,21.67
2019-02-28T06:25:40.049Z,18.13
2019-02-28T06:28:12.012Z,19.20
2019-02-28T06:30:42.630Z,21.23
2019-02-28T06:33:11.637Z,22.83
2019-02-28T06:35:40.712Z,22.00
2019-02-28T06:38:09.708Z,21.00
2019-02-28T06:40:38.783Z,27.23
2019-02-28T06:43:07.604Z,22.47
2019-02-28T06:45:37.732Z,24.07
2019-02-28T06:48:07.441Z,26.23
2019-02-28T06:50:36.226Z,19.23
2019-02-28T06:53:05.253Z,22.53
2019-02-28T06:55:34.027Z,25.13
2019-02-28T06:58:02.904Z,25.10
2019-02-28T07:00:31.686Z,29.90
2019-02-28T07:03:03.368Z,27.87
2019-02-28T07:05:31.294Z,28.37
2019-02-28T07:08:00.355Z,25.23
2019-02-28T07:10:29.487Z,29.00
2019-02-28T07:13:04.124Z,30.47
2019-02-28T07:15:29.235Z,26.90
2019-02-28T07:17:58.122Z,26.30
2019-02-28T07:20:27.003Z,21.40
2019-02-28T07:22:55.902Z,24.70
2019-02-28T07:25:25.381Z,23.23
2019-02-28T07:27:54.201Z,26.33
2019-02-28T07:30:23.096Z,22.67
2019-02-28T07:32:51.888Z,20.40
2019-02-28T07:35:20.961Z,22.13
2019-02-28T07:37:53.343Z,24.53
2019-02-28T07:40:20.510Z,22.47
2019-02-28T07:42:49.335Z,18.33
2019-02-28T07:45:18.181Z,19.63
2019-02-28T07:47:51.718Z,23.10
2019-02-28T07:50:18.175Z,24.93
2019-02-28T07:52:47.106Z,22.23
2019-02-28T07:55:15.923Z,19.87
2019-02-28T07:57:44.848Z,19.00
2019-02-28T08:00:18.106Z,14.57
2019-02-28T08:02:46.890Z,16.33
2019-02-28T08:05:16.212Z,14.03
2019-02-28T08:07:50.238Z,16.30
2019-02-28T08:10:17.132Z,17.77
2019-02-28T08:12:49.305Z,12.20
2019-02-28T08:15:22.401Z,13.57
2019-02-28T08:17:50.960Z,15.73
2019-02-28T08:20:20.920Z,14.40
2019-02-28T08:22:50.342Z,16.90
2019-02-28T08:25:21.099Z,18.70
2019-02-28T08:27:50.184Z,14.80
2019-02-28T08:30:20.730Z,18.27
2019-02-28T08:32:49.751Z,12.07
2019-02-28T08:35:18.664Z,19.33
2019-02-28T08:37:47.539Z,12.03
2019-02-28T08:40:17.788Z,12.10
2019-02-28T08:42:46.683Z,17.87
2019-02-28T08:45:15.590Z,14.73
2019-02-28T08:47:44.382Z,20.83
2019-02-28T08:50:19.054Z,17.73
2019-02-28T08:52:48.431Z,19.40
2019-02-28T08:55:17.347Z,18.77
2019-02-28T08:57:54.382Z,21.57
2019-02-28T09:00:18.041Z,18.80
2019-02-28T09:02:52.272Z,19.83
2019-02-28T09:05:17.676Z,18.13
2019-02-28T09:07:50.924Z,23.60
2019-02-28T09:10:18.372Z,24.63
2019-02-28T09:12:47.621Z,19.43
2019-02-28T09:15:16.706Z,24.53
2019-02-28T09:17:45.857Z,22.60
2019-02-28T09:20:14.816Z,19.97
2019-02-28T09:22:43.876Z,27.60
2019-02-28T09:25:14.213Z,23.60
2019-02-28T09:27:43.118Z,32.60
2019-02-28T09:30:26.575Z,30.10
2019-02-28T09:32:55.106Z,24.40
2019-02-28T09:35:23.966Z,25.97
2019-02-28T09:37:52.793Z,27.80
2019-02-28T09:40:21.608Z,26.80
2019-02-28T09:42:51.223Z,24.67
2019-02-28T09:45:20.921Z,23.53
2019-02-28T09:47:50.041Z,24.80
2019-02-28T09:50:22.434Z,26.05
2019-02-28T09:52:50.702Z,28.00
2019-02-28T09:55:19.547Z,27.50
2019-02-28T09:57:53.810Z,25.12
2019-02-28T10:00:19.741Z,27.17
2019-02-28T10:02:48.855Z,27.80
2019-02-28T10:05:17.774Z,29.10
2019-02-28T10:07:46.636Z,25.10
2019-02-28T10:10:20.721Z,28.12
2019-02-28T10:12:48.317Z,24.72
2019-02-28T10:15:18.718Z,26.73
2019-02-28T10:17:47.880Z,27.00
2019-02-28T10:20:26.323Z,32.90
2019-02-28T10:22:52.354Z,26.80
2019-02-28T10:25:21.281Z,26.75
2019-02-28T10:27:50.368Z,23.92
2019-02-28T10:30:30.794Z,29.27
2019-02-28T10:32:51.408Z,25.75
2019-02-28T10:35:20.361Z,23.85
2019-02-28T10:37:49.456Z,24.77
2019-02-28T10:40:20.612Z,23.60
2019-02-28T10:42:49.560Z,28.05
2019-02-28T10:45:18.580Z,26.73
2019-02-28T10:47:47.796Z,27.02
2019-02-28T10:50:18.881Z,23.32
2019-02-28T10:52:47.777Z,33.30
2019-02-28T10:55:19.487Z,21.68
2019-02-28T10:57:48.157Z,25.37
2019-02-28T11:00:20.277Z,27.48
2019-02-28T11:02:50.423Z,26.05
2019-02-28T11:05:24.225Z,29.00
2019-02-28T11:07:53.647Z,25.32
2019-02-28T11:10:22.941Z,23.35
2019-02-28T11:12:54.239Z,23.90
2019-02-28T11:15:24.940Z,25.45
2019-02-28T11:17:54.513Z,26.23
2019-02-28T11:20:26.305Z,22.98
2019-02-28T11:22:54.308Z,26.85
2019-02-28T11:25:25.486Z,22.95
2019-02-28T11:27:54.699Z,23.20
2019-02-28T11:30:24.505Z,25.30
2019-02-28T11:32:55.148Z,19.70
2019-02-28T11:35:24.547Z,20.90
2019-02-28T11:37:53.596Z,20.15
2019-02-28T11:40:24.165Z,25.72
2019-02-28T11:42:59.456Z,24.80
2019-02-28T11:45:27.661Z,21.45
2019-02-28T11:47:57.949Z,23.35
2019-02-28T11:50:26.738Z,19.17
2019-02-28T11:52:55.829Z,24.07
2019-02-28T11:55:24.703Z,21.82
2019-02-28T11:57:54.321Z,22.82
2019-02-28T12:00:26.463Z,20.00
2019-02-28T12:02:59.757Z,18.05
2019-02-28T12:05:26.269Z,24.67
2019-02-28T12:07:55.195Z,21.10
2019-02-28T12:10:26.914Z,20.72
2019-02-28T12:12:56.435Z,17.23
2019-02-28T12:15:26.373Z,21.55
2019-02-28T12:17:55.237Z,23.52
2019-02-28T12:20:26.524Z,18.90
2019-02-28T12:22:54.833Z,19.42
2019-02-28T12:25:23.785Z,24.40
2019-02-28T12:27:52.654Z,26.10
2019-02-28T12:30:25.166Z,18.27
2019-02-28T12:32:54.001Z,17.10
2019-02-28T12:35:22.981Z,17.85
2019-02-28T12:37:53.908Z,16.07
2019-02-28T12:40:25.010Z,17.67
2019-02-28T12:42:56.224Z,16.00
2019-02-28T12:45:27.814Z,12.30
2019-02-28T12:47:56.917Z,14.80
2019-02-28T12:50:29.487Z,13.35
2019-02-28T12:52:57.207Z,14.15
2019-02-28T12:55:26.233Z,15.78
2019-02-28T12:57:57.922Z,16.45
2019-02-28T13:00:28.323Z,15.70
2019-02-28T13:02:57.185Z,13.58
2019-02-28T13:05:26.057Z,14.23
2019-02-28T13:07:55.034Z,15.32
2019-02-28T13:10:28.066Z,14.75
2019-02-28T13:13:05.265Z,15.70
2019-02-28T13:15:25.940Z,14.35
2019-02-28T13:17:54.886Z,12.65
2019-02-28T13:20:24.543Z,13.10
2019-02-28T13:22:55.642Z,14.65
2019-02-28T13:25:25.472Z,15.60
2019-02-28T13:27:54.756Z,13.80
2019-02-28T13:30:24.137Z,14.93
2019-02-28T13:32:53.329Z,14.55
2019-02-28T13:35:24.945Z,11.22
2019-02-28T13:37:54.059Z,13.72
2019-02-28T13:40:23.174Z,15.63
2019-02-28T13:42:52.072Z,11.78
2019-02-28T13:45:23.077Z,13.22
2019-02-28T13:47:52.290Z,10.93
2019-02-28T13:50:25.926Z,11.90
2019-02-28T13:52:53.351Z,17.40
2019-02-28T13:55:22.690Z,14.75
2019-02-28T13:57:51.610Z,15.83
2019-02-28T14:00:22.834Z,17.40
2019-02-28T14:02:53.682Z,16.07
2019-02-28T14:05:23.157Z,14.90
2019-02-28T14:07:52.194Z,17.73
2019-02-28T14:10:22.785Z,18.77
2019-02-28T14:12:53.194Z,17.23
2019-02-28T14:15:25.299Z,19.30
2019-02-28T14:17:54.564Z,14.47
2019-02-28T14:20:24.479Z,18.10
2019-02-28T14:22:54.222Z,17.67
2019-02-28T14:25:23.470Z,17.48
2019-02-28T14:27:52.333Z,19.27
2019-02-28T14:30:22.778Z,21.30
2019-02-28T14:32:52.873Z,17.87
2019-02-28T14:35:23.004Z,15.60
2019-02-28T14:37:55.898Z,22.22
2019-02-28T14:40:23.349Z,15.30
2019-02-28T14:42:52.492Z,14.00
2019-02-28T14:45:22.000Z,13.10
2019-02-28T14:47:57.023Z,15.80
2019-02-28T14:50:22.738Z,14.75
2019-02-28T14:52:53.174Z,15.63
2019-02-28T14:55:22.336Z,22.07
2019-02-28T14:57:51.552Z,14.78
2019-02-28T15:00:24.637Z,12.82
2019-02-28T15:02:53.553Z,16.50
2019-02-28T15:05:22.651Z,15.83
2019-02-28T15:07:52.050Z,15.28
2019-02-28T15:10:20.976Z,18.35
2019-02-28T15:12:49.961Z,16.60
2019-02-28T15:15:19.288Z,16.37
2019-02-28T15:17:48.247Z,14.28
2019-02-28T15:20:17.447Z,14.87
2019-02-28T15:22:46.728Z,12.40
2019-02-28T15:25:18.528Z,11.97
2019-02-28T15:27:47.669Z,13.48
2019-02-28T15:30:22.067Z,11.85
2019-02-28T15:32:54.421Z,14.10
2019-02-28T15:35:22.311Z,16.05
2019-02-28T15:37:51.181Z,13.00
2019-02-28T15:40:27.448Z,21.55
2019-02-28T15:42:56.219Z,13.38
2019-02-28T15:45:26.894Z,12.40
2019-02-28T15:47:59.059Z,11.83
2019-02-28T15:50:27.549Z,13.95
2019-02-28T15:52:56.490Z,13.38
2019-02-28T15:55:25.890Z,12.33
2019-02-28T15:57:55.336Z,10.35
2019-02-28T16:00:26.170Z,17.37
2019-02-28T16:02:55.101Z,13.78
2019-02-28T16:05:24.502Z,12.20
2019-02-28T16:07:53.713Z,11.33
2019-02-28T16:10:24.282Z,12.37
2019-02-28T16:12:53.295Z,14.25
2019-02-28T16:15:22.359Z,14.03
2019-02-28T16:17:52.411Z,16.67
2019-02-28T16:20:21.342Z,14.73
2019-02-28T16:22:53.064Z,15.03
2019-02-28T16:25:24.050Z,16.57
2019-02-28T16:27:53.081Z,17.60
2019-02-28T16:30:22.230Z,16.20
2019-02-28T16:32:51.208Z,20.07
2019-02-28T16:35:20.323Z,18.32
2019-02-28T16:37:49.334Z,18.90
2019-02-28T16:40:20.691Z,15.83
2019-02-28T16:42:49.550Z,21.10
2019-02-28T16:45:43.658Z,23.30
2019-02-28T16:48:12.778Z,19.00
2019-02-28T16:50:42.812Z,20.93
2019-02-28T16:53:16.232Z,20.10
2019-02-28T16:55:42.713Z,19.27
2019-02-28T16:58:12.035Z,15.03
2019-02-28T17:00:42.499Z,19.63
2019-02-28T17:03:11.813Z,18.23
2019-02-28T17:05:40.638Z,17.30
2019-02-28T17:08:09.565Z,19.00
2019-02-28T17:10:40.282Z,17.70
2019-02-28T17:13:20.255Z,14.13
2019-02-28T17:16:15.714Z,17.07
2019-02-28T17:18:45.020Z,15.20
2019-02-28T17:21:17.946Z,14.83
2019-02-28T17:23:45.343Z,18.00
2019-02-28T17:26:14.578Z,21.20
2019-02-28T17:28:55.040Z,15.10
2019-02-28T17:31:44.433Z,18.33
2019-02-28T17:34:17.637Z,17.43
2019-02-28T17:36:47.630Z,18.00
2019-02-28T17:39:17.609Z,15.47
2019-02-28T17:41:46.934Z,18.93
2019-02-28T17:45:00.265Z,21.37
2019-02-28T17:48:19.834Z,18.03
2019-02-28T17:51:28.044Z,18.23
2019-02-28T17:54:22.090Z,16.57
2019-02-28T17:57:05.404Z,16.37
2019-02-28T18:00:06.744Z,20.27
2019-02-28T18:03:13.813Z,18.13
2019-02-28T18:06:22.903Z,16.23
2019-02-28T18:09:23.608Z,20.27
2019-02-28T18:12:29.041Z,11.53
2019-02-28T18:15:08.975Z,17.40
2019-02-28T18:18:15.667Z,9.80
2019-02-28T18:21:17.341Z,12.63
2019-02-28T18:24:45.408Z,20.63
2019-02-28T18:27:51.711Z,17.57
2019-02-28T18:30:46.368Z,15.10
2019-02-28T18:33:15.531Z,16.47
2019-02-28T18:35:44.400Z,16.60
2019-02-28T18:38:13.277Z,18.03
2019-02-28T18:40:42.485Z,21.33
2019-02-28T18:43:11.410Z,17.43
2019-02-28T18:45:40.300Z,16.93
2019-02-28T18:48:11.285Z,16.13
2019-02-28T18:50:40.109Z,14.83
2019-02-28T18:53:12.152Z,15.60
2019-02-28T18:55:40.774Z,16.83
2019-02-28T18:58:09.609Z,23.80
2019-02-28T19:00:38.473Z,24.60
2019-02-28T19:03:07.536Z,20.93
2019-02-28T19:05:36.405Z,14.67
2019-02-28T19:08:05.488Z,17.20
2019-02-28T19:10:34.769Z,18.77
2019-02-28T19:13:03.693Z,17.63
2019-02-28T19:15:32.854Z,16.93
2019-02-28T19:18:02.629Z,15.90
2019-02-28T19:20:31.821Z,16.80
2019-02-28T19:23:00.877Z,18.90
2019-02-28T19:25:29.708Z,15.97
2019-02-28T19:27:58.592Z,14.10
2019-02-28T19:30:28.088Z,15.57
2019-02-28T19:32:57.188Z,15.10
2019-02-28T19:35:26.256Z,19.67
2019-02-28T19:37:55.266Z,14.60
2019-02-28T19:40:24.217Z,15.00
2019-02-28T19:42:53.489Z,15.67
2019-02-28T19:45:22.670Z,13.97
2019-02-28T19:47:51.736Z,11.07
2019-02-28T19:50:20.637Z,7.57
2019-02-28T19:52:49.455Z,8.90
2019-02-28T19:55:18.424Z,9.83
2019-02-28T19:57:47.575Z,13.77
2019-02-28T20:00:16.820Z,6.00
2019-02-28T20:02:45.980Z,7.23
2019-02-28T20:05:15.312Z,8.20
2019-02-28T20:07:44.776Z,7.60
2019-02-28T20:10:14.950Z,5.93
2019-02-28T20:12:44.108Z,4.77
2019-02-28T20:15:14.646Z,7.70
2019-02-28T20:17:43.657Z,4.13
2019-02-28T20:20:14.426Z,6.83
2019-02-28T20:22:43.305Z,6.40
2019-02-28T20:25:12.890Z,5.97
2019-02-28T20:27:41.875Z,6.07
2019-02-28T20:30:13.400Z,9.03
2019-02-28T20:32:42.465Z,7.67
2019-02-28T20:35:11.633Z,7.77
2019-02-28T20:37:40.748Z,7.07
2019-02-28T20:40:11.753Z,6.47
2019-02-28T20:42:40.743Z,14.63
2019-02-28T20:45:10.560Z,6.97
2019-02-28T20:47:39.488Z,9.43
2019-02-28T20:50:18.269Z,5.17
2019-02-28T20:52:47.254Z,14.00
2019-02-28T20:55:16.438Z,12.40
2019-02-28T20:57:45.433Z,8.50
2019-02-28T21:00:17.037Z,11.33
2019-02-28T21:02:45.907Z,9.07
2019-02-28T21:05:15.053Z,11.73
2019-02-28T21:07:44.678Z,7.63
2019-02-28T21:10:13.719Z,11.93
2019-02-28T21:12:42.864Z,6.40
2019-02-28T21:15:12.373Z,7.27
2019-02-28T21:17:41.688Z,8.00
2019-02-28T21:20:12.187Z,6.17
2019-02-28T21:22:41.342Z,8.07
2019-02-28T21:25:11.224Z,8.53
2019-02-28T21:27:40.104Z,6.83
2019-02-28T21:30:15.046Z,13.27
2019-02-28T21:32:44.032Z,12.73
2019-02-28T21:35:13.681Z,8.17
2019-02-28T21:37:42.941Z,11.90
2019-02-28T21:40:12.788Z,3.90
2019-02-28T21:42:41.830Z,7.83
2019-02-28T21:45:11.752Z,10.77
2019-02-28T21:47:40.549Z,8.23
2019-02-28T21:50:11.144Z,8.60
2019-02-28T21:52:40.013Z,10.30
2019-02-28T21:55:10.152Z,12.80
2019-02-28T21:57:39.142Z,10.20
2019-02-28T22:00:11.822Z,6.80
2019-02-28T22:02:41.022Z,9.90
2019-02-28T22:05:11.345Z,5.27
2019-02-28T22:07:40.206Z,10.07
2019-02-28T22:10:09.961Z,8.73
2019-02-28T22:12:38.976Z,14.23
2019-02-28T22:15:10.541Z,9.27
2019-02-28T22:17:39.942Z,10.13
2019-02-28T22:20:09.988Z,7.10
2019-02-28T22:22:38.911Z,6.00
2019-02-28T22:25:08.606Z,4.87
2019-02-28T22:27:37.758Z,7.47
2019-02-28T22:30:26.700Z,9.40
2019-02-28T22:32:57.417Z,7.03
2019-02-28T22:35:31.013Z,7.07
2019-02-28T22:37:59.816Z,7.93
2019-02-28T22:40:28.680Z,8.10
2019-02-28T22:42:57.919Z,6.10
2019-02-28T22:45:26.914Z,8.17
2019-02-28T22:47:55.920Z,6.63
2019-02-28T22:50:24.706Z,5.50
2019-02-28T22:52:54.717Z,11.37
2019-02-28T22:55:23.956Z,6.60
2019-02-28T22:57:52.733Z,7.83
2019-02-28T23:00:46.644Z,13.80
2019-02-28T23:03:15.571Z,8.23
2019-02-28T23:05:44.548Z,7.03
2019-02-28T23:08:13.352Z,6.77
2019-02-28T23:10:42.192Z,12.00
2019-02-28T23:13:11.038Z,9.00
2019-02-28T23:15:39.893Z,8.20
2019-02-28T23:18:08.898Z,11.07
2019-02-28T23:20:37.716Z,9.67
2019-02-28T23:23:06.817Z,10.90
2019-02-28T23:25:35.886Z,11.50
2019-02-28T23:28:09.900Z,11.83
2019-02-28T23:31:19.052Z,14.13
2019-02-28T23:33:47.866Z,8.73
2019-02-28T23:36:16.979Z,7.27
2019-02-28T23:38:46.063Z,5.93
2019-02-28T23:41:14.837Z,6.30
2019-02-28T23:43:44.173Z,6.73
2019-02-28T23:46:13.478Z,6.60
2019-02-28T23:48:42.539Z,11.47
2019-02-28T23:51:11.382Z,5.00
2019-02-28T23:53:40.148Z,3.60
2019-02-28T23:56:08.986Z,6.00
2019-02-28T23:58:37.764Z,6.23
